sensor_id;sensor_type;location;lat;lon;timestamp;P1;durP1;ratioP1;P2;durP2;ratioP2
49153;SDS011;49455;52.252;9.124;2023-04-01T00:01:46;2.67;;;1.55;;
49153;SDS011;49455;52.252;9.124;2023-04-01T00:06:46;5.25;;;1.90;;
49153;SDS011;49455;52.252;9.124;2023-04-01T00:11:47;3.72;;;1.60;;
49153;SDS011;49455;52.252;9.124;2023-04-01T00:16:48;3.88;;;1.40;;
49153;SDS011;49455;52.252;9.124;2023-04-01T00:21:48;3.33;;;1.50;;
49153;SDS011;49455;52.252;9.124;2023-04-01T00:26:48;3.42;;;1.40;;
49153;SDS011;49455;52.252;9.124;2023-04-01T00:31:49;3.10;;;1.77;;
49153;SDS011;49455;52.252;9.124;2023-04-01T00:36:50;2.83;;;1.40;;
49153;SDS011;49455;52.252;9.124;2023-04-01T00:41:50;2.40;;;1.27;;
49153;SDS011;49455;52.252;9.124;2023-04-01T00:46:51;2.80;;;1.10;;
49153;SDS011;49455;52.252;9.124;2023-04-01T00:51:52;9.65;;;1.65;;
49153;SDS011;49455;52.252;9.124;2023-04-01T00:56:56;2.72;;;1.00;;
49153;SDS011;49455;52.252;9.124;2023-04-01T01:02:08;2.83;;;0.90;;
49153;SDS011;49455;52.252;9.124;2023-04-01T01:13:26;3.08;;;1.50;;
49153;SDS011;49455;52.252;9.124;2023-04-01T01:40:32;5.20;;;1.88;;
49153;SDS011;49455;52.252;9.124;2023-04-01T01:45:34;2.72;;;1.27;;
49153;SDS011;49455;52.252;9.124;2023-04-01T01:50:37;2.20;;;0.90;;
49153;SDS011;49455;52.252;9.124;2023-04-01T01:55:41;1.17;;;0.90;;
49153;SDS011;49455;52.252;9.124;2023-04-01T02:00:45;2.45;;;0.95;;
49153;SDS011;49455;52.252;9.124;2023-04-01T02:05:50;3.42;;;1.50;;
49153;SDS011;49455;52.252;9.124;2023-04-01T02:10:56;4.85;;;1.30;;
49153;SDS011;49455;52.252;9.124;2023-04-01T02:16:04;3.97;;;1.23;;
49153;SDS011;49455;52.252;9.124;2023-04-01T02:21:11;2.80;;;1.27;;
49153;SDS011;49455;52.252;9.124;2023-04-01T02:26:12;0.88;;;0.85;;
49153;SDS011;49455;52.252;9.124;2023-04-01T02:31:17;3.00;;;1.00;;
49153;SDS011;49455;52.252;9.124;2023-04-01T02:36:17;4.50;;;0.98;;
49153;SDS011;49455;52.252;9.124;2023-04-01T02:41:18;2.83;;;0.98;;
49153;SDS011;49455;52.252;9.124;2023-04-01T02:46:20;3.80;;;1.23;;
49153;SDS011;49455;52.252;9.124;2023-04-01T02:51:20;1.42;;;0.85;;
49153;SDS011;49455;52.252;9.124;2023-04-01T02:56:20;1.73;;;0.95;;
49153;SDS011;49455;52.252;9.124;2023-04-01T03:01:21;1.08;;;0.85;;
49153;SDS011;49455;52.252;9.124;2023-04-01T03:06:22;4.32;;;1.10;;
49153;SDS011;49455;52.252;9.124;2023-04-01T03:11:25;4.05;;;0.73;;
49153;SDS011;49455;52.252;9.124;2023-04-01T03:16:26;2.70;;;0.80;;
49153;SDS011;49455;52.252;9.124;2023-04-01T03:21:26;2.95;;;0.50;;
49153;SDS011;49455;52.252;9.124;2023-04-01T03:26:26;2.63;;;0.88;;
49153;SDS011;49455;52.252;9.124;2023-04-01T03:31:27;2.90;;;0.80;;
49153;SDS011;49455;52.252;9.124;2023-04-01T03:36:30;3.03;;;0.88;;
49153;SDS011;49455;52.252;9.124;2023-04-01T03:41:31;1.00;;;0.70;;
49153;SDS011;49455;52.252;9.124;2023-04-01T03:46:33;2.58;;;0.88;;
49153;SDS011;49455;52.252;9.124;2023-04-01T03:51:34;2.03;;;0.90;;
49153;SDS011;49455;52.252;9.124;2023-04-01T03:56:34;2.45;;;0.95;;
49153;SDS011;49455;52.252;9.124;2023-04-01T04:01:35;1.70;;;0.75;;
49153;SDS011;49455;52.252;9.124;2023-04-01T04:06:35;1.52;;;0.63;;
49153;SDS011;49455;52.252;9.124;2023-04-01T04:11:36;3.75;;;0.73;;
49153;SDS011;49455;52.252;9.124;2023-04-01T04:16:36;2.80;;;0.80;;
49153;SDS011;49455;52.252;9.124;2023-04-01T04:21:37;3.58;;;0.82;;
49153;SDS011;49455;52.252;9.124;2023-04-01T04:26:37;1.38;;;0.60;;
49153;SDS011;49455;52.252;9.124;2023-04-01T04:31:38;1.70;;;0.68;;
49153;SDS011;49455;52.252;9.124;2023-04-01T04:36:38;3.63;;;0.95;;
49153;SDS011;49455;52.252;9.124;2023-04-01T04:41:39;2.40;;;0.95;;
49153;SDS011;49455;52.252;9.124;2023-04-01T04:46:40;2.67;;;0.70;;
49153;SDS011;49455;52.252;9.124;2023-04-01T04:51:47;2.08;;;0.82;;
49153;SDS011;49455;52.252;9.124;2023-04-01T05:01:51;4.43;;;1.10;;
49153;SDS011;49455;52.252;9.124;2023-04-01T05:06:52;1.27;;;0.80;;
49153;SDS011;49455;52.252;9.124;2023-04-01T05:11:52;1.83;;;0.75;;
49153;SDS011;49455;52.252;9.124;2023-04-01T05:16:55;1.58;;;1.10;;
49153;SDS011;49455;52.252;9.124;2023-04-01T05:21:55;1.40;;;0.93;;
49153;SDS011;49455;52.252;9.124;2023-04-01T05:26:56;3.05;;;1.15;;
49153;SDS011;49455;52.252;9.124;2023-04-01T05:31:56;2.97;;;1.60;;
49153;SDS011;49455;52.252;9.124;2023-04-01T05:37:00;1.40;;;0.82;;
49153;SDS011;49455;52.252;9.124;2023-04-01T05:42:01;1.75;;;1.00;;
49153;SDS011;49455;52.252;9.124;2023-04-01T05:47:02;1.48;;;0.90;;
49153;SDS011;49455;52.252;9.124;2023-04-01T05:52:03;1.90;;;0.90;;
49153;SDS011;49455;52.252;9.124;2023-04-01T05:57:05;1.13;;;0.80;;
49153;SDS011;49455;52.252;9.124;2023-04-01T06:02:06;2.65;;;0.80;;
49153;SDS011;49455;52.252;9.124;2023-04-01T06:07:11;2.08;;;1.00;;
49153;SDS011;49455;52.252;9.124;2023-04-01T06:28:34;3.25;;;1.17;;
49153;SDS011;49455;52.252;9.124;2023-04-01T06:39:18;4.05;;;1.15;;
49153;SDS011;49455;52.252;9.124;2023-04-01T06:55:55;5.00;;;1.40;;
49153;SDS011;49455;52.252;9.124;2023-04-01T07:01:34;4.18;;;3.65;;
49153;SDS011;49455;52.252;9.124;2023-04-01T07:06:39;3.30;;;1.35;;
49153;SDS011;49455;52.252;9.124;2023-04-01T07:12:15;1.58;;;1.15;;
49153;SDS011;49455;52.252;9.124;2023-04-01T07:17:53;3.03;;;1.20;;
49153;SDS011;49455;52.252;9.124;2023-04-01T07:22:58;1.42;;;0.90;;
49153;SDS011;49455;52.252;9.124;2023-04-01T07:33:27;2.90;;;1.00;;
49153;SDS011;49455;52.252;9.124;2023-04-01T07:38:45;0.98;;;0.80;;
49153;SDS011;49455;52.252;9.124;2023-04-01T07:44:18;2.72;;;1.20;;
49153;SDS011;49455;52.252;9.124;2023-04-01T07:49:45;4.65;;;1.20;;
49153;SDS011;49455;52.252;9.124;2023-04-01T07:54:53;3.33;;;1.33;;
49153;SDS011;49455;52.252;9.124;2023-04-01T07:59:58;2.90;;;1.10;;
49153;SDS011;49455;52.252;9.124;2023-04-01T08:05:32;3.13;;;1.20;;
49153;SDS011;49455;52.252;9.124;2023-04-01T08:11:02;0.90;;;0.80;;
49153;SDS011;49455;52.252;9.124;2023-04-01T08:21:54;1.92;;;1.00;;
49153;SDS011;49455;52.252;9.124;2023-04-01T08:26:58;2.28;;;1.00;;
49153;SDS011;49455;52.252;9.124;2023-04-01T08:48:01;1.33;;;0.70;;
49153;SDS011;49455;52.252;9.124;2023-04-01T09:14:53;3.00;;;0.87;;
49153;SDS011;49455;52.252;9.124;2023-04-01T09:20:17;0.98;;;0.80;;
49153;SDS011;49455;52.252;9.124;2023-04-01T09:36:44;1.77;;;0.85;;
49153;SDS011;49455;52.252;9.124;2023-04-01T09:58:19;1.80;;;0.80;;
49153;SDS011;49455;52.252;9.124;2023-04-01T10:09:28;0.70;;;0.70;;
49153;SDS011;49455;52.252;9.124;2023-04-01T10:30:39;3.70;;;2.50;;
49153;SDS011;49455;52.252;9.124;2023-04-01T10:58:20;0.90;;;0.80;;
49153;SDS011;49455;52.252;9.124;2023-04-01T11:04:30;2.03;;;0.80;;
49153;SDS011;49455;52.252;9.124;2023-04-01T11:52:40;1.00;;;0.93;;
49153;SDS011;49455;52.252;9.124;2023-04-01T12:08:55;2.22;;;1.42;;
49153;SDS011;49455;52.252;9.124;2023-04-01T12:14:08;2.20;;;1.42;;
49153;SDS011;49455;52.252;9.124;2023-04-01T12:19:15;2.53;;;1.30;;
49153;SDS011;49455;52.252;9.124;2023-04-01T12:35:30;3.50;;;1.70;;
49153;SDS011;49455;52.252;9.124;2023-04-01T12:46:26;3.33;;;1.70;;
49153;SDS011;49455;52.252;9.124;2023-04-01T12:51:44;2.63;;;1.73;;
49153;SDS011;49455;52.252;9.124;2023-04-01T13:34:26;1.38;;;1.27;;
49153;SDS011;49455;52.252;9.124;2023-04-01T13:39:56;1.70;;;1.17;;
49153;SDS011;49455;52.252;9.124;2023-04-01T14:00:53;2.15;;;1.10;;
49153;SDS011;49455;52.252;9.124;2023-04-01T14:06:02;0.70;;;0.70;;
49153;SDS011;49455;52.252;9.124;2023-04-01T14:16:58;1.52;;;0.95;;
49153;SDS011;49455;52.252;9.124;2023-04-01T14:53:35;0.73;;;0.70;;
49153;SDS011;49455;52.252;9.124;2023-04-01T14:58:50;1.02;;;1.00;;
49153;SDS011;49455;52.252;9.124;2023-04-01T15:25:00;1.27;;;1.17;;
49153;SDS011;49455;52.252;9.124;2023-04-01T15:52:06;1.45;;;1.35;;
49153;SDS011;49455;52.252;9.124;2023-04-01T15:57:32;1.08;;;1.08;;
49153;SDS011;49455;52.252;9.124;2023-04-01T16:02:53;1.67;;;1.58;;
49153;SDS011;49455;52.252;9.124;2023-04-01T16:08:11;3.22;;;1.95;;
49153;SDS011;49455;52.252;9.124;2023-04-01T16:13:24;1.25;;;1.00;;
49153;SDS011;49455;52.252;9.124;2023-04-01T16:23:51;1.27;;;1.17;;
49153;SDS011;49455;52.252;9.124;2023-04-01T16:29:12;1.65;;;1.20;;
49153;SDS011;49455;52.252;9.124;2023-04-01T16:34:36;0.88;;;0.80;;
49153;SDS011;49455;52.252;9.124;2023-04-01T16:44:54;1.25;;;1.15;;
49153;SDS011;49455;52.252;9.124;2023-04-01T16:50:06;1.20;;;1.10;;
49153;SDS011;49455;52.252;9.124;2023-04-01T16:55:18;0.60;;;0.60;;
49153;SDS011;49455;52.252;9.124;2023-04-01T17:00:30;0.80;;;0.80;;
49153;SDS011;49455;52.252;9.124;2023-04-01T17:11:14;4.68;;;2.47;;
49153;SDS011;49455;52.252;9.124;2023-04-01T17:21:40;0.90;;;0.90;;
49153;SDS011;49455;52.252;9.124;2023-04-01T17:27:01;1.20;;;1.10;;
49153;SDS011;49455;52.252;9.124;2023-04-01T17:48:24;1.33;;;1.00;;
49153;SDS011;49455;52.252;9.124;2023-04-01T18:04:10;1.25;;;1.15;;
49153;SDS011;49455;52.252;9.124;2023-04-01T18:30:11;1.73;;;1.63;;
49153;SDS011;49455;52.252;9.124;2023-04-01T18:40:34;1.45;;;1.35;;
49153;SDS011;49455;52.252;9.124;2023-04-01T18:45:40;1.60;;;1.50;;
49153;SDS011;49455;52.252;9.124;2023-04-01T18:51:03;1.40;;;1.30;;
49153;SDS011;49455;52.252;9.124;2023-04-01T19:23:38;3.30;;;2.33;;
49153;SDS011;49455;52.252;9.124;2023-04-01T19:39:55;2.53;;;2.13;;
49153;SDS011;49455;52.252;9.124;2023-04-01T20:00:47;1.85;;;1.70;;
49153;SDS011;49455;52.252;9.124;2023-04-01T20:05:57;2.75;;;2.10;;
49153;SDS011;49455;52.252;9.124;2023-04-01T20:16:50;2.42;;;2.10;;
49153;SDS011;49455;52.252;9.124;2023-04-01T20:21:57;2.75;;;2.20;;
49153;SDS011;49455;52.252;9.124;2023-04-01T20:27:01;2.33;;;2.13;;
49153;SDS011;49455;52.252;9.124;2023-04-01T20:42:34;2.92;;;2.60;;
49153;SDS011;49455;52.252;9.124;2023-04-01T21:03:38;3.50;;;2.30;;
49153;SDS011;49455;52.252;9.124;2023-04-01T21:08:49;2.20;;;2.00;;
49153;SDS011;49455;52.252;9.124;2023-04-01T21:24:39;2.72;;;2.50;;
49153;SDS011;49455;52.252;9.124;2023-04-01T22:08:26;4.05;;;3.30;;
49153;SDS011;49455;52.252;9.124;2023-04-01T22:13:16;3.45;;;2.58;;
49153;SDS011;49455;52.252;9.124;2023-04-01T22:18:31;4.28;;;2.90;;
49153;SDS011;49455;52.252;9.124;2023-04-01T22:49:47;3.97;;;3.00;;
49153;SDS011;49455;52.252;9.124;2023-04-01T22:54:56;3.28;;;2.72;;
49153;SDS011;49455;52.252;9.124;2023-04-01T23:00:12;4.97;;;3.25;;
49153;SDS011;49455;52.252;9.124;2023-04-01T23:05:18;4.85;;;3.10;;
49153;SDS011;49455;52.252;9.124;2023-04-01T23:10:23;6.32;;;3.95;;
49153;SDS011;49455;52.252;9.124;2023-04-01T23:15:28;6.32;;;3.72;;
49153;SDS011;49455;52.252;9.124;2023-04-01T23:20:53;4.20;;;3.70;;
49153;SDS011;49455;52.252;9.124;2023-04-01T23:36:37;5.75;;;3.53;;
49153;SDS011;49455;52.252;9.124;2023-04-01T23:41:43;4.47;;;3.30;;
49153;SDS011;49455;52.252;9.124;2023-04-01T23:46:44;6.97;;;3.60;;
49153;SDS011;49455;52.252;9.124;2023-04-01T23:51:52;5.43;;;3.90;;
49153;SDS011;49455;52.252;9.124;2023-04-01T23:56:55;6.40;;;3.95;;
